Latest Coastal Weather Observations for Pirlangimpi (Garden Point)

IDD60701

Issued at 2:51 am CST Sunday 19 November 2017 (issued every 10 minutes, with the page automatically refreshed every 10 minutes)

About coastal observations | Map of coastal stations | Coastal observations for NT | Marine services | Other Formats
Station Details ID: 014142 Name: PIRLANGIMPI AIRPORT Lat: -11.40 Lon: 130.42 Height: 18.3 m
Data from the previous 72 hours. | See also: Recent months at Pirlangimpi (Garden Point)
Date/Time
CST
Temp
°C
Wind Pressure Rain since
9am
mm
Weather Cloud Vis
km
Sea
Height
m
Swell
Dir  Spd
kts
Gust
kts
hPa Trend Height
m
Period
s
Dir
19/02:30am 25.7 CALM 0 0 1007.6 - 5.0 - - - - - - -
19/02:00am 25.8 CALM 0 0 1007.8 - 5.0 - - - - - - -
19/01:30am 25.9 CALM 0 0 1008.1 - 5.0 - - - - - - -
19/01:00am 26.0 CALM 0 0 1008.4 - 5.0 - - - - - - -
19/12:30am 26.1 CALM 0 0 1008.6 - 5.0 - - - - - - -
19/12:00am 26.3 CALM 0 2 1008.7 - 5.0 Recent precip. - - - - - -
 
Date/Time
CST
Temp
°C
Wind Pressure Rain since
9am
mm
Weather Cloud Vis
km
Sea
Height
m
Swell
Dir  Spd
kts
Gust
kts
hPa Trend Height
m
Period
s
Dir
18/11:30pm 26.3 CALM 0 2 1008.6 - 5.0 - - - - - - -
18/11:00pm 26.2 CALM 0 0 1008.5 - 4.6 - - - - - - -
18/10:30pm 26.3 CALM 0 0 1008.3 - 4.6 - - - - - - -
18/10:00pm 26.2 CALM 0 2 1008.0 - 4.6 - - - - - - -
18/09:30pm 26.2 CALM 0 0 1007.8 - 4.6 - - - - - - -
18/09:00pm 26.1 CALM 0 1 1007.7 - 4.6 - - - - - - -
18/08:30pm 25.9 NNE 1 3 1007.5 - 4.6 - - - - - - -
18/08:00pm 25.7 NE 2 3 1007.6 - 4.6 - - - - - - -
18/07:30pm 25.5 NE 2 4 1007.1 - 4.2 - - - - - - -
18/07:00pm 25.0 ESE 8 16 1007.6 - 2.8 - - - - - - -
18/06:30pm 29.8 ENE 5 8 1007.2 - 0.0 - - - - - - -
18/06:00pm 30.0 ENE 5 8 1006.9 - 0.0 - - - - - - -
18/05:30pm 30.1 NE 4 9 1006.4 - 0.0 - - - - - - -
18/05:00pm 30.3 NE 3 7 1006.0 - 0.0 - - - - - - -
18/04:30pm 30.6 ENE 5 10 1005.9 - 0.0 - - - - - - -
18/04:00pm 31.1 ENE 9 15 1006.1 - 0.0 - - - - - - -
18/03:30pm 33.0 ENE 8 15 1006.0 - 0.0 - - - - - - -
18/03:00pm 32.8 NE 6 11 1006.3 - 0.0 - - - - - - -
18/02:30pm 32.8 NE 7 13 1006.3 - 0.0 - - - - - - -
18/02:00pm 33.3 NE 7 14 1006.5 - 0.0 - - - - - - -
18/01:30pm 32.9 ESE 5 9 1007.1 - 0.0 - - - - - - -
18/01:00pm 33.6 NE 6 12 1007.3 - 0.0 - - - - - - -
18/12:30pm 33.4 NE 7 13 1007.6 - 0.0 - - - - - - -
18/12:00pm 33.9 ENE 7 14 1008.1 - 0.0 - - - - - - -
18/11:30am 33.2 ENE 9 16 1008.5 - 0.0 - - - - - - -
18/11:00am 32.2 ENE 9 15 1008.9 - 0.0 - - - - - - -
18/10:30am 33.1 ENE 9 13 1009.2 - 0.0 - - - - - - -
18/10:00am 31.9 ENE 7 11 1009.4 - 0.0 - - - - - - -
18/09:30am 31.3 ENE 6 11 1009.3 - 0.0 - - - - - - -
18/09:00am 29.0 E 2 3 1009.2 - 0.0 - - - - - - -
18/08:30am 28.6 E 5 8 1009.0 - 0.0 - - - - - - -
18/08:00am 28.9 SE 4 8 1008.7 - 0.0 - - - - - - -
18/07:30am 27.3 ESE 3 7 1008.2 - 0.0 - - - - - - -
18/07:00am 25.7 ESE 3 4 1007.9 - 0.0 - - - - - - -
18/06:30am 25.1 SE 2 3 1007.6 - 0.0 - - - - - - -
18/06:00am 25.3 CALM 0 0 1007.3 - 0.0 - - - - - - -
18/05:30am 25.7 E 2 2 1007.1 - 0.0 - - - - - - -
18/05:00am 25.7 SE 2 3 1006.8 - 0.0 - - - - - - -
18/04:30am 25.9 SE 1 2 1007.1 - 0.0 - - - - - - -
18/04:00am 25.7 SE 2 3 1006.9 - 0.0 - - - - - - -
18/03:30am 25.7 SSE 1 2 1006.9 - 0.0 - - - - - - -
18/03:00am 25.6 ESE 2 3 1007.3 - 0.0 - - - - - - -
18/02:30am 25.8 CALM 0 0 1007.4 - 0.0 - - - - - - -
18/02:00am 25.9 ESE 2 2 1007.9 - 0.0 - - - - - - -
18/01:30am 26.0 ESE 1 2 1008.1 - 0.0 - - - - - - -
18/01:00am 25.9 CALM 0 0 1008.4 - 0.0 - - - - - - -
18/12:30am 25.8 CALM 0 0 1008.8 - 0.0 - - - - - - -
18/12:00am 25.9 CALM 0 0 1008.8 - 0.0 - - - - - - -
 
Date/Time
CST
Temp
°C
Wind Pressure Rain since
9am
mm
Weather Cloud Vis
km
Sea
Height
m
Swell
Dir  Spd
kts
Gust
kts
hPa Trend Height
m
Period
s
Dir
17/11:30pm 25.9 CALM 0 0 1009.2 - 0.0 - - - - - - -
17/11:00pm 26.1 CALM 0 0 1009.4 - 0.0 - - - - - - -
17/10:30pm 26.3 CALM 0 0 1008.9 - 0.0 - - - - - - -
17/10:00pm 26.8 E 2 2 1008.9 - 0.0 - - - - - - -
17/09:30pm 26.6 E 2 3 1008.6 - 0.0 - - - - - - -
17/09:00pm 26.6 CALM 0 0 1008.2 - 0.0 - - - - - - -
17/08:30pm 26.9 CALM 0 0 1007.8 - 0.0 - - - - - - -
17/08:00pm 27.4 CALM 0 1 1007.5 - 0.0 - - - - - - -
17/07:30pm 27.8 N 1 2 1007.1 - 0.0 - - - - - - -
17/07:00pm 28.2 NNE 2 5 1007.0 - 0.0 - - - - - - -
17/06:30pm 28.9 ENE 2 3 1006.9 - 0.0 - - - - - - -
17/06:00pm 29.2 NE 4 8 1006.6 - 0.0 - - - - - - -
17/05:30pm 29.6 ENE 5 9 1006.5 - 0.0 - - - - - - -
17/05:00pm 30.3 ENE 5 9 1006.4 - 0.0 - - - - - - -
17/04:30pm 30.3 NE 6 9 1006.5 - 0.0 - - - - - - -
17/04:00pm 30.5 ENE 7 11 1006.2 - 0.0 - - - - - - -
17/03:30pm 30.7 E 5 9 1006.1 - 0.0 - - - - - - -
17/03:00pm 30.4 ESE 7 11 1006.5 - 0.0 - - - - - - -
17/02:30pm 31.9 ENE 7 12 1006.9 - 0.0 - - - - - - -
17/02:00pm 31.5 ENE 7 13 1007.7 - 0.0 - - - - - - -
17/01:30pm 31.5 NE 6 10 1007.9 - 0.0 - - - - - - -
17/01:00pm 31.2 NE 4 9 1008.0 - 0.0 - - - - - - -
17/12:30pm 30.3 NE 2 5 1008.2 - 0.0 - - - - - - -
17/12:00pm 29.4 ENE 3 5 1008.6 - 0.0 - - - - - - -
17/11:30am 28.8 E 6 9 1008.9 - 0.0 - - - - - - -
17/11:00am 30.3 NE 4 6 1009.0 - 0.0 - - - - - - -
17/10:30am 31.0 ENE 5 9 1009.2 - 0.0 - - - - - - -
17/10:00am 31.4 ENE 5 9 1009.2 - 0.0 - - - - - - -
17/09:30am 31.2 ESE 5 10 1009.2 - 0.0 - - - - - - -
17/09:00am 29.9 ESE 5 9 1009.1 - 45.0 - - - - - - -
17/08:30am 28.3 SE 4 8 1009.1 - 45.0 - - - - - - -
17/08:00am 27.0 SE 3 6 1009.0 - 45.0 - - - - - - -
17/07:30am 25.9 SE 2 3 1008.8 - 45.0 - - - - - - -
17/07:00am 25.3 E 2 4 1008.4 - 45.0 - - - - - - -
17/06:30am 24.8 NNE 1 2 1008.2 - 45.0 - - - - - - -
17/06:00am 25.1 E 3 4 1007.9 - 45.0 - - - - - - -
17/05:30am 24.9 ESE 3 4 1007.7 - 45.0 - - - - - - -
17/05:00am 24.9 SE 3 4 1007.3 - 45.0 - - - - - - -
17/04:30am 24.8 SSE 2 4 1007.5 - 45.0 - - - - - - -
17/04:00am 24.9 SSE 1 2 1007.1 - 45.0 - - - - - - -
17/03:30am 24.7 E 2 3 1007.0 - 45.0 - - - - - - -
17/03:00am 24.8 ESE 1 2 1007.2 - 45.0 - - - - - - -
17/02:30am 24.7 CALM 0 1 1007.5 - 45.0 - - - - - - -
17/02:00am 25.0 S 1 2 1007.6 - 45.0 - - - - - - -
17/01:30am 25.2 E 1 3 1008.1 - 45.0 - - - - - - -
17/01:00am 25.2 ENE 3 5 1008.3 - 45.0 - - - - - - -
17/12:30am 25.3 NE 2 3 1008.5 - 45.0 - - - - - - -
17/12:00am 25.6 ESE 1 2 1008.8 - 45.0 - - - - - - -
 
Date/Time
CST
Temp
°C
Wind Pressure Rain since
9am
mm
Weather Cloud Vis
km
Sea
Height
m
Swell
Dir  Spd
kts
Gust
kts
hPa Trend Height
m
Period
s
Dir
16/11:30pm 26.0 ESE 1 2 1008.8 - 45.0 - - - - - - -
16/11:00pm 25.7 E 2 3 1008.9 - 45.0 - - - - - - -
16/10:30pm 25.9 CALM 0 0 1009.0 - 45.0 - - - - - - -
16/10:00pm 25.8 NE 2 4 1009.2 - 45.0 - - - - - - -
16/09:30pm 25.7 E 3 3 1008.9 - 45.0 - - - - - - -
16/09:00pm 25.7 ESE 1 2 1008.5 - 45.0 - - - - - - -
16/08:30pm 26.1 CALM 0 0 1008.1 - 45.0 - - - - - - -
16/08:00pm 26.2 ENE 1 3 1007.9 - 45.0 - - - - - - -
16/07:30pm 26.7 CALM 0 2 1007.6 - 45.0 - - - - - - -
16/07:00pm 27.9 E 2 4 1007.2 - 45.0 - - - - - - -
16/06:30pm 28.6 E 3 4 1006.6 - 45.0 - - - - - - -
16/06:00pm 29.4 ENE 5 7 1006.4 - 45.0 - - - - - - -
16/05:30pm 30.2 ENE 4 7 1006.2 - 45.0 - - - - - - -
16/05:00pm 29.9 NE 4 6 1005.8 - 45.0 - - - - - - -
16/04:30pm 29.5 ENE 4 7 1005.8 - 45.0 - - - - - - -
16/04:00pm 29.6 ENE 7 9 1005.9 - 45.0 - - - - - - -
16/03:30pm 28.8 NNE 4 9 1006.2 - 45.0 - - - - - - -
16/03:00pm 27.2 SSW 1 3 1006.5 - 45.0 Rain - - - - - -
16/02:30pm 25.4 CALM 0 1 1007.3 - 44.8 - - - - - - -
16/02:00pm 24.5 S 1 2 1007.5 - 44.8 - - - - - - -
16/01:30pm 23.8 E 2 5 1008.1 - 44.2 - - - - - - -
16/01:00pm 23.8 ESE 7 15 1008.4 - 23.2 - - - - - - -
16/12:30pm 26.1 SSW 5 7 1007.9 - 14.8 - - - - - - -
16/12:00pm 25.6 NNW 1 2 1008.5 - 13.4 Rain - - - - - -
16/11:30am 25.7 NNW 5 11 1008.7 - 1.2 - - - - - - -
16/11:00am 28.7 WSW 3 7 1008.9 - 0.2 - - - - - - -
16/10:30am 29.6 S 3 6 1009.1 - 0.2 - - - - - - -
16/10:00am 29.6 SSW 3 4 1009.5 - 0.2 - - - - - - -
16/09:30am 29.2 WSW 1 4 1009.4 - 0.2 - - - - - - -
16/09:00am 29.8 ENE 1 3 1009.3 - 98.2 - - - - - - -
16/08:30am 28.6 SE 2 3 1009.1 - 98.2 - - - - - - -
16/08:00am 27.3 SSE 3 5 1009.0 - 98.2 - - - - - - -
16/07:30am 26.5 SSE 2 4 1008.4 - 98.2 - - - - - - -
16/07:00am 25.6 E 1 2 1008.3 - 98.2 - - - - - - -
16/06:30am 24.8 SE 3 4 1008.4 - 98.2 - - - - - - -
16/06:00am 24.5 SE 1 2 1007.8 - 98.2 - - - - - - -
16/05:30am 24.2 CALM 0 0 1007.3 - 98.2 - - - - - - -
16/05:00am 24.4 CALM 0 0 1007.2 - 98.2 - - - - - - -
16/04:30am 24.2 NE 1 3 1006.9 - 98.2 - - - - - - -
16/04:00am 24.2 NE 4 5 1007.3 - 98.2 - - - - - - -
16/03:30am 24.3 CALM 0 0 1007.2 - 98.2 - - - - - - -
16/03:00am 24.3 CALM 0 0 1007.3 - 98.2 - - - - - - -

Other Formats:

Comma delimited format used in spreadsheet applications
http://www.bom.gov.au/fwo/IDD60701/IDD60701.94119.axf

JavaScript Object Notation format (JSON) in row-major order
http://www.bom.gov.au/fwo/IDD60701/IDD60701.94119.json